Terminal Aerodrome Forecast
Issued by NWS

Home | Current Version | Previous Version | Text Only | Print | Product List | Glossary On
Versions: 1 2 3 4 5 6 7 8 9 10 11 12 13 14 15 16 17 18
426
FTUS45 KMSO 170538
TAFSMN
TAF
KSMN 170538Z 1706/1806 12006KT P6SM SCT150
     FM171300 00000KT 5SM BR SCT006
     FM171700 00000KT P6SM BKN070
     FM172100 00000KT P6SM OVC045=

USA.gov is the U.S. government's official web portal to all federal, state and local government web resources and services.